createdAt,value
2022-11-27T04:35:43.377Z,3.64
2022-11-27T04:40:45.580Z,3.64
2022-11-27T04:45:47.399Z,3.66
2022-11-27T04:50:49.138Z,3.66
2022-11-27T04:55:50.944Z,3.54
2022-11-27T05:00:52.682Z,3.54
2022-11-27T05:05:55.248Z,3.46
2022-11-27T05:10:59.511Z,3.46
2022-11-27T05:16:01.829Z,3.51
2022-11-27T05:21:05.258Z,3.51
2022-11-27T05:26:07.026Z,3.57
2022-11-27T05:31:08.936Z,3.57
2022-11-27T05:36:11.097Z,3.51
2022-11-27T05:41:13.233Z,3.55
2022-11-27T05:46:16.968Z,3.55
2022-11-27T05:51:18.915Z,3.56
2022-11-27T05:56:20.649Z,3.56
2022-11-27T06:01:22.501Z,3.49
2022-11-27T06:06:24.280Z,3.49
2022-11-27T06:11:26.588Z,3.42
2022-11-27T06:16:28.367Z,3.42
2022-11-27T06:21:30.651Z,3.33
2022-11-27T06:26:33.081Z,3.33
2022-11-27T06:31:34.992Z,3.37
2022-11-27T06:36:38.387Z,3.37
2022-11-27T06:41:40.197Z,3.06
2022-11-27T06:46:41.959Z,3.06
2022-11-27T06:51:43.959Z,3.17
2022-11-27T06:56:48.354Z,3.17
2022-11-27T07:01:50.467Z,3.19
2022-11-27T07:06:53.025Z,3.19
2022-11-27T07:11:54.858Z,3.29
2022-11-27T07:16:56.680Z,3.29
2022-11-27T07:21:58.809Z,2.9
2022-11-27T07:27:00.575Z,2.74
2022-11-27T07:32:02.398Z,2.74
2022-11-27T07:37:04.744Z,2.76
2022-11-27T07:42:30.849Z,2.76
2022-11-27T07:47:12.227Z,2.96
2022-11-27T07:52:13.979Z,2.96
2022-11-27T07:57:15.662Z,3.06
2022-11-27T08:02:17.427Z,3.06
2022-11-27T08:07:19.173Z,3.17
2022-11-27T08:12:22.390Z,3.17
2022-11-27T08:17:24.167Z,3.2
2022-11-27T08:22:25.932Z,3.2
2022-11-27T08:27:29.801Z,3.28
2022-11-27T08:32:31.558Z,3.28
2022-11-27T08:37:33.453Z,3.51
2022-11-27T08:42:35.222Z,3.51
2022-11-27T08:47:36.994Z,3.7
2022-11-27T08:52:38.765Z,3.7
2022-11-27T08:57:40.572Z,3.61
2022-11-27T09:02:42.424Z,3.61
2022-11-27T09:07:44.232Z,4.09
2022-11-27T09:12:47.462Z,4.16
2022-11-27T09:17:49.233Z,4.16
2022-11-27T09:22:51.087Z,3.84
2022-11-27T09:27:52.861Z,3.84
2022-11-27T09:32:54.576Z,3.85
2022-11-27T09:37:56.317Z,3.85
2022-11-27T09:43:00.315Z,4.04
2022-11-27T09:48:04.418Z,4.04
2022-11-27T09:58:15.540Z,4.12
2022-11-27T10:03:19.366Z,4.1
2022-11-27T10:08:26.004Z,4.1
2022-11-27T10:13:40.173Z,4.09
2022-11-27T10:18:43.991Z,4.09
2022-11-27T10:23:50.201Z,3.73
2022-11-27T10:28:56.788Z,3.73
2022-11-27T10:34:01.274Z,3.68
2022-11-27T10:39:04.664Z,3.68
2022-11-27T10:49:15.249Z,3.74
2022-11-27T10:54:21.269Z,3.74
2022-11-27T10:59:28.732Z,3.8
2022-11-27T11:04:39.176Z,3.8
2022-11-27T11:19:47.795Z,4.23
2022-11-27T11:24:51.129Z,4.23
2022-11-27T11:29:54.252Z,4.48
2022-11-27T11:35:01.062Z,4.48
2022-11-27T11:40:05.832Z,4.52
2022-11-27T11:45:16.364Z,4.52
2022-11-27T11:55:26.567Z,4.58
2022-11-27T12:05:38.941Z,4.72
2022-11-27T12:10:47.076Z,4.48
2022-11-27T12:15:53.665Z,4.31
2022-11-27T12:26:05.206Z,4.39
2022-11-27T12:31:11.234Z,4.39
2022-11-27T12:41:27.802Z,4.37
2022-11-27T12:51:38.735Z,4.14
2022-11-27T12:56:43.539Z,4.04
2022-11-27T13:01:47.680Z,4.04
2022-11-27T13:06:54.447Z,4.09
2022-11-27T13:11:56.936Z,4.09
2022-11-27T13:17:01.645Z,4.06
2022-11-27T13:22:07.876Z,4.06
2022-11-27T13:27:13.446Z,3.93
2022-11-27T13:32:19.859Z,3.93
2022-11-27T13:37:26.444Z,3.88
2022-11-27T13:42:28.790Z,3.82
2022-11-27T13:47:35.366Z,3.82
2022-11-27T14:02:49.343Z,3.69
2022-11-27T14:07:53.041Z,3.69
2022-11-27T14:12:57.959Z,3.66
2022-11-27T14:18:06.549Z,3.66
2022-11-27T14:23:13.362Z,3.57
2022-11-27T14:28:18.885Z,3.57
2022-11-27T14:33:22.669Z,3.57
2022-11-27T14:38:25.796Z,3.57
2022-11-27T14:43:28.206Z,3.55
2022-11-27T14:48:34.769Z,3.55
2022-11-27T14:53:37.180Z,3.56
2022-11-27T14:58:43.188Z,3.56
2022-11-27T15:09:09.357Z,3.45
2022-11-27T15:13:58.965Z,3.45
2022-11-27T15:19:02.486Z,3.43
2022-11-27T15:24:05.048Z,3.43
2022-11-27T15:39:21.562Z,3.38
2022-11-27T15:44:24.852Z,3.38
2022-11-27T15:49:26.995Z,3.35
2022-11-27T15:54:29.065Z,3.35
2022-11-27T15:59:31.262Z,3.34
2022-11-27T16:04:33.593Z,3.34
2022-11-27T16:09:35.936Z,3.29
2022-11-27T16:14:38.924Z,3.29
2022-11-27T16:19:42.234Z,3.21
2022-11-27T16:24:44.688Z,3.21
2022-11-27T16:29:46.621Z,3.26
2022-11-27T16:34:49.287Z,3.26
2022-11-27T16:39:51.347Z,3.26
2022-11-27T16:44:53.635Z,3.26
2022-11-27T16:49:56.043Z,3.26
2022-11-27T16:54:58.225Z,3.26
2022-11-27T17:00:00.670Z,3.26
2022-11-27T17:05:05.042Z,3.26
2022-11-27T17:10:08.346Z,3.26
2022-11-27T17:15:10.699Z,3.26
2022-11-27T17:20:14.950Z,3.26
2022-11-27T17:25:18.246Z,3.26
